Time;durP1;ratioP1;P1;durP2;ratioP2;P2;SDS_P1;SDS_P2;PMS_P1;PMS_P2;Temp;Humidity;BMP_temperature;BMP_pressure;BME280_temperature;BME280_humidity;BME280_pressure;Samples;Min_cycle;Max_cycle;Signal;HPM_P1;HPM_P2
2022/09/14 00:01:24;;;;;;;9.77;7.53;;;;;;;14.48;90.79;94635.94;5153690;27;20671;-77
2022/09/14 00:03:52;;;;;;;16.20;7.90;;;;;;;14.42;91.74;94636.91;5153260;27;20661;-76
2022/09/14 00:06:18;;;;;;;13.60;7.90;;;;;;;14.41;92.29;94640.53;5153662;27;20191;-76
2022/09/14 00:08:49;;;;;;;13.13;8.17;;;;;;;14.43;91.55;94630.63;5153126;27;20203;-77
2022/09/14 00:11:17;;;;;;;9.77;7.20;;;;;;;14.48;90.97;94640.38;5153945;27;20230;-77
2022/09/14 00:13:45;;;;;;;8.67;6.80;;;;;;;14.51;90.27;94637.25;5153527;27;20563;-77
2022/09/14 00:16:14;;;;;;;9.63;6.70;;;;;;;14.52;88.77;94638.84;5152712;27;20234;-77
2022/09/14 00:18:42;;;;;;;8.53;6.30;;;;;;;14.41;89.47;94643.16;5146769;27;20207;-77
2022/09/14 00:21:11;;;;;;;8.10;6.20;;;;;;;14.37;89.42;94642.03;5153394;27;20425;-77
2022/09/14 00:23:40;;;;;;;7.37;5.90;;;;;;;14.45;88.30;94643.47;5153190;27;20207;-76
2022/09/14 00:26:08;;;;;;;9.83;6.30;;;;;;;14.47;88.72;94638.78;5153137;27;20661;-77
2022/09/14 00:28:39;;;;;;;8.33;6.30;;;;;;;14.42;89.22;94641.34;5153331;27;20229;-76
2022/09/14 00:31:07;;;;;;;9.00;6.63;;;;;;;14.44;88.75;94634.03;5153065;27;20195;-75
2022/09/14 00:33:34;;;;;;;8.63;6.40;;;;;;;14.40;89.10;94635.56;5152939;27;20580;-76
2022/09/14 00:36:07;;;;;;;8.53;6.67;;;;;;;14.36;89.38;94637.06;5153028;27;20236;-74
2022/09/14 00:38:35;;;;;;;10.00;6.53;;;;;;;14.32;89.18;94649.81;5152792;27;20870;-75
2022/09/14 00:41:03;;;;;;;9.73;6.50;;;;;;;14.31;88.93;94639.59;5152946;27;20194;-75
2022/09/14 00:43:30;;;;;;;9.77;6.27;;;;;;;14.28;88.80;94634.84;5153320;27;20199;-74
2022/09/14 00:46:00;;;;;;;8.13;6.20;;;;;;;14.31;89.17;94643.00;5152645;27;20206;-75
2022/09/14 00:48:29;;;;;;;9.10;6.60;;;;;;;14.19;89.80;94644.91;5149211;27;20590;-75
2022/09/14 00:50:56;;;;;;;10.90;7.10;;;;;;;14.15;90.30;94634.13;5152295;27;20238;-75
2022/09/14 00:53:23;;;;;;;8.83;6.47;;;;;;;14.17;90.44;94646.94;5152762;27;20194;-75
2022/09/14 00:55:53;;;;;;;10.70;6.73;;;;;;;14.16;91.02;94658.47;5151471;27;20222;-74
2022/09/14 00:58:20;;;;;;;11.57;6.80;;;;;;;14.14;90.65;94660.53;5146218;27;20234;-74
2022/09/14 01:00:47;;;;;;;9.13;7.00;;;;;;;14.06;91.50;94663.53;5152005;27;20198;-74
2022/09/14 01:03:15;;;;;;;12.00;6.80;;;;;;;13.96;91.90;94656.34;5152245;27;20206;-75
2022/09/14 01:06:00;;;;;;;11.27;7.00;;;;;;;13.90;91.63;94661.72;5152922;27;20205;-75
2022/09/14 01:08:42;;;;;;;18.93;7.33;;;;;;;13.90;91.52;94653.88;5152469;27;20229;-75
2022/09/14 01:11:20;;;;;;;12.07;7.13;;;;;;;13.94;90.96;94653.16;5152704;27;20211;-74
2022/09/14 01:13:58;;;;;;;9.77;7.50;;;;;;;13.95;90.84;94656.56;5152331;27;20206;-75
2022/09/14 01:16:32;;;;;;;14.87;9.17;;;;;;;13.87;90.98;94654.34;5152358;27;20218;-75
2022/09/14 01:19:04;;;;;;;11.40;8.10;;;;;;;13.87;91.55;94649.94;5146167;27;20206;-75
2022/09/14 01:21:33;;;;;;;12.23;9.13;;;;;;;13.82;91.66;94651.66;5152614;27;20195;-75
2022/09/14 01:24:06;;;;;;;12.57;9.20;;;;;;;13.77;92.70;94660.19;5152231;27;20209;-75
2022/09/14 01:26:56;;;;;;;13.33;8.97;;;;;;;13.76;92.63;94644.78;5152267;27;20278;-75
2022/09/14 01:29:28;;;;;;;15.23;9.17;;;;;;;13.74;93.42;94645.00;5152408;27;20269;-75
2022/09/14 01:32:00;;;;;;;14.07;9.87;;;;;;;13.72;93.93;94648.88;5152466;27;20258;-75
2022/09/14 01:34:32;;;;;;;17.00;10.30;;;;;;;13.73;93.52;94632.19;5151832;27;20203;-77
2022/09/14 01:37:04;;;;;;;18.47;11.93;;;;;;;13.68;93.81;94637.34;5151966;27;20598;-77
2022/09/14 01:39:34;;;;;;;20.90;12.13;;;;;;;13.70;93.45;94649.13;5151904;27;20560;-77
2022/09/14 01:42:02;;;;;;;17.00;11.53;;;;;;;13.60;94.22;94648.97;5151853;27;20245;-76
2022/09/14 01:44:37;;;;;;;16.20;11.43;;;;;;;13.59;94.57;94656.00;5133561;27;20207;-77
2022/09/14 01:47:11;;;;;;;15.70;11.27;;;;;;;13.56;94.82;94653.84;5150258;27;20234;-77
2022/09/14 01:49:42;;;;;;;15.03;10.20;;;;;;;13.58;94.82;94664.88;5151716;27;20250;-76
2022/09/14 01:52:14;;;;;;;12.67;10.00;;;;;;;13.57;94.73;94665.88;5151741;27;20732;-76
2022/09/14 01:54:45;;;;;;;13.07;10.00;;;;;;;13.52;95.39;94659.78;5152157;27;20199;-76
2022/09/14 01:57:17;;;;;;;20.30;9.63;;;;;;;13.55;95.10;94652.28;5151859;27;20210;-78
2022/09/14 01:59:48;;;;;;;13.20;8.87;;;;;;;13.56;94.37;94645.25;5149494;27;20194;-77
2022/09/14 02:02:19;;;;;;;13.90;8.53;;;;;;;13.57;94.87;94647.59;5156081;27;20191;-78
2022/09/14 02:04:53;;;;;;;11.90;8.50;;;;;;;13.57;95.20;94650.22;5155772;27;20199;-78
2022/09/14 02:07:20;;;;;;;13.03;9.20;;;;;;;13.55;95.07;94641.84;5156182;27;20259;-78
2022/09/14 02:09:49;;;;;;;13.30;8.77;;;;;;;13.50;95.49;94638.34;5155878;27;20202;-78
2022/09/14 02:12:16;;;;;;;13.33;8.00;;;;;;;13.45;95.80;94644.25;5156071;27;20253;-78
2022/09/14 02:14:45;;;;;;;11.27;8.00;;;;;;;13.41;94.59;94648.41;5155726;27;20199;-78
2022/09/14 02:17:13;;;;;;;10.60;7.57;;;;;;;13.37;94.31;94651.69;5150666;27;20226;-77
2022/09/14 02:19:44;;;;;;;12.07;8.50;;;;;;;13.31;94.89;94650.81;5155432;27;20194;-78
2022/09/14 02:22:11;;;;;;;10.70;7.90;;;;;;;13.29;95.62;94652.88;5155287;27;20197;-77
2022/09/14 02:24:38;;;;;;;11.50;7.97;;;;;;;13.29;96.03;94645.03;5155371;27;20578;-77
2022/09/14 02:27:07;;;;;;;10.87;7.90;;;;;;;13.30;95.59;94638.81;5155327;27;20645;-76
2022/09/14 02:29:34;;;;;;;10.10;7.73;;;;;;;13.31;96.05;94639.56;5142379;27;20212;-76
2022/09/14 02:32:15;;;;;;;10.63;7.40;;;;;;;13.33;95.09;94653.97;5155435;27;20198;-76
2022/09/14 02:34:53;;;;;;;11.67;8.20;;;;;;;13.33;95.29;94640.91;5154910;27;20202;-77
2022/09/14 02:37:25;;;;;;;14.43;8.00;;;;;;;13.22;95.73;94648.84;5155437;27;20222;-76
2022/09/14 02:40:01;;;;;;;9.03;7.10;;;;;;;13.15;95.71;94651.56;5155008;27;20680;-78
2022/09/14 02:42:37;;;;;;;9.63;7.70;;;;;;;13.07;96.66;94654.53;5155218;27;20611;-78
2022/09/14 02:45:11;;;;;;;10.17;7.83;;;;;;;13.02;96.96;94652.59;5155110;27;20224;-78
2022/09/14 02:47:50;;;;;;;12.23;7.57;;;;;;;13.10;96.52;94659.31;5154192;27;20213;-78
2022/09/14 02:50:22;;;;;;;8.97;7.60;;;;;;;13.11;96.40;94660.09;5155249;27;20221;-78
2022/09/14 02:52:53;;;;;;;11.10;7.23;;;;;;;13.08;96.37;94646.50;5154201;27;20254;-78
2022/09/14 02:55:23;;;;;;;16.20;7.83;;;;;;;13.08;95.81;94650.91;5137304;27;20194;-77
2022/09/14 02:57:59;;;;;;;11.97;8.03;;;;;;;13.07;96.26;94660.56;5128306;27;20230;-77
2022/09/14 03:00:28;;;;;;;11.97;7.57;;;;;;;13.06;96.27;94653.75;5152480;27;20205;-77
2022/09/14 03:02:56;;;;;;;14.53;7.60;;;;;;;13.01;96.41;94658.06;5154774;27;20206;-77
2022/09/14 03:05:23;;;;;;;13.97;7.47;;;;;;;12.99;95.92;94668.72;5154875;27;20218;-77
2022/09/14 03:07:50;;;;;;;14.77;8.07;;;;;;;12.99;95.62;94655.69;5154333;27;20203;-78
2022/09/14 03:10:17;;;;;;;11.67;7.40;;;;;;;13.02;95.45;94657.81;5153829;27;20210;-78
2022/09/14 03:12:43;;;;;;;9.50;7.60;;;;;;;13.00;95.77;94653.88;5154815;27;20199;-77
2022/09/14 03:15:11;;;;;;;10.40;7.37;;;;;;;13.02;95.79;94662.25;5154030;27;20210;-76
2022/09/14 03:17:38;;;;;;;13.60;7.90;;;;;;;12.97;96.58;94644.69;5149956;27;20226;-77
2022/09/14 03:20:07;;;;;;;16.43;8.03;;;;;;;12.86;97.25;94655.16;5154199;27;20210;-78
2022/09/14 03:22:33;;;;;;;12.87;8.37;;;;;;;12.93;96.91;94656.59;5147330;27;20578;-77
2022/09/14 03:25:00;;;;;;;14.27;8.70;;;;;;;12.89;97.42;94650.28;5154872;27;20194;-75
2022/09/14 03:27:27;;;;;;;10.97;7.90;;;;;;;12.85;97.60;94651.75;5154005;27;20206;-76
2022/09/14 03:29:54;;;;;;;25.13;8.77;;;;;;;12.79;98.09;94652.69;5154053;27;20581;-75
2022/09/14 03:32:21;;;;;;;13.30;8.03;;;;;;;12.77;98.18;94651.31;5154689;27;20202;-75
2022/09/14 03:34:48;;;;;;;11.17;8.07;;;;;;;12.68;98.10;94644.88;5153691;27;20202;-75
2022/09/14 03:37:16;;;;;;;12.83;7.63;;;;;;;12.73;98.14;94651.00;5146421;27;20269;-75
2022/09/14 03:39:43;;;;;;;11.20;8.27;;;;;;;12.72;98.59;94661.66;5153849;27;20639;-75
2022/09/14 03:42:10;;;;;;;9.67;8.30;;;;;;;12.71;98.39;94650.44;5146438;27;20251;-75
2022/09/14 03:44:37;;;;;;;11.57;8.03;;;;;;;12.68;98.49;94650.09;5146253;27;20278;-75
2022/09/14 03:47:04;;;;;;;11.87;8.57;;;;;;;12.74;97.94;94655.19;5153102;27;20202;-75
2022/09/14 03:49:31;;;;;;;14.87;8.97;;;;;;;12.67;97.60;94651.91;5153688;27;20199;-76
2022/09/14 03:51:58;;;;;;;15.47;8.63;;;;;;;12.66;98.81;94650.34;5153586;27;20614;-77
2022/09/14 03:54:26;;;;;;;11.87;8.43;;;;;;;12.58;99.00;94655.13;5092649;27;20200;-75
2022/09/14 03:56:55;;;;;;;13.47;8.93;;;;;;;12.65;98.94;94659.19;5124045;27;21422;-74
2022/09/14 03:59:22;;;;;;;19.73;9.43;;;;;;;12.71;98.26;94657.47;5131562;27;20295;-74
2022/09/14 04:01:49;;;;;;;11.67;8.73;;;;;;;12.68;98.45;94666.53;5131657;27;20211;-73
2022/09/14 04:04:17;;;;;;;16.23;8.90;;;;;;;12.64;98.08;94664.63;5132577;27;20227;-73
2022/09/14 04:06:44;;;;;;;14.77;8.80;;;;;;;12.67;97.99;94656.34;5128795;27;20210;-73
2022/09/14 04:09:11;;;;;;;15.77;9.63;;;;;;;12.63;98.68;94656.03;5133374;27;20207;-72
2022/09/14 04:11:39;;;;;;;14.47;9.50;;;;;;;12.65;98.82;94658.38;5130975;27;20586;-72
2022/09/14 04:14:07;;;;;;;18.17;9.23;;;;;;;12.68;98.59;94663.94;5134811;27;20286;-73
2022/09/14 04:16:34;;;;;;;20.07;9.57;;;;;;;12.67;98.47;94654.53;5130994;27;20282;-72
2022/09/14 04:19:01;;;;;;;17.40;12.50;;;;;;;12.65;98.81;94653.16;5132069;27;20208;-72
2022/09/14 04:21:28;;;;;;;17.63;11.03;;;;;;;12.69;98.38;94667.34;5127699;27;20586;-73
2022/09/14 04:23:56;;;;;;;19.17;10.40;;;;;;;12.65;97.87;94663.59;5129405;27;20206;-72
2022/09/14 04:26:25;;;;;;;17.17;10.57;;;;;;;12.61;98.27;94665.09;5130331;27;20214;-71
2022/09/14 04:28:54;;;;;;;25.53;10.90;;;;;;;12.60;98.88;94660.91;5133314;27;20207;-72
2022/09/14 04:31:21;;;;;;;21.30;10.57;;;;;;;12.60;99.13;94655.69;5129791;27;20199;-72
2022/09/14 04:33:49;;;;;;;19.50;10.63;;;;;;;12.60;99.36;94653.06;5134965;27;20203;-73
2022/09/14 04:36:18;;;;;;;24.00;11.37;;;;;;;12.61;99.35;94655.44;5127324;27;20285;-71
2022/09/14 04:38:45;;;;;;;34.20;11.13;;;;;;;12.62;99.01;94661.44;5131354;27;20234;-73
2022/09/14 04:41:14;;;;;;;41.33;11.57;;;;;;;12.58;99.13;94665.56;5131348;27;20203;-73
2022/09/14 04:43:42;;;;;;;22.37;10.17;;;;;;;12.61;98.48;94670.31;5133611;27;20248;-72
2022/09/14 04:46:14;;;;;;;21.50;10.17;;;;;;;12.51;99.22;94669.06;5130348;27;20738;-73
2022/09/14 04:48:41;;;;;;;20.60;9.70;;;;;;;12.51;99.65;94663.06;5129031;27;20230;-73
2022/09/14 04:51:09;;;;;;;14.97;9.43;;;;;;;12.52;99.43;94662.81;5132430;27;21167;-73
2022/09/14 04:53:38;;;;;;;15.73;9.77;;;;;;;12.55;99.66;94677.25;5128318;27;20199;-75
2022/09/14 04:56:07;;;;;;;17.83;10.27;;;;;;;12.55;99.30;94672.03;5134474;27;20207;-79
2022/09/14 04:58:38;;;;;;;17.03;9.97;;;;;;;12.65;98.98;94676.63;5131449;27;20219;-72
2022/09/14 05:01:07;;;;;;;21.17;10.77;;;;;;;12.64;99.27;94680.28;5134245;27;20199;-72
2022/09/14 05:03:37;;;;;;;15.77;10.40;;;;;;;12.67;99.14;94688.41;5151101;27;20297;-72
2022/09/14 05:06:05;;;;;;;14.27;9.93;;;;;;;12.69;99.10;94691.59;5145136;27;20253;-72
2022/09/14 05:08:35;;;;;;;16.50;10.33;;;;;;;12.76;98.90;94688.84;5151038;27;20199;-72
2022/09/14 05:11:02;;;;;;;21.43;13.10;;;;;;;12.82;98.80;94695.75;5151111;27;20361;-72
2022/09/14 05:13:29;;;;;;;17.97;11.33;;;;;;;12.83;98.83;94694.75;5150946;27;20732;-72
2022/09/14 05:15:55;;;;;;;16.07;9.90;;;;;;;12.85;98.26;94688.28;5151487;27;20661;-72
2022/09/14 05:18:22;;;;;;;16.13;10.43;;;;;;;12.86;98.69;94696.91;5147520;27;20677;-71
2022/09/14 05:20:50;;;;;;;17.17;10.43;;;;;;;12.90;98.71;94698.03;5151775;27;20195;-72
2022/09/14 05:23:17;;;;;;;23.70;12.63;;;;;;;12.89;98.41;94706.88;5151930;27;20665;-72
2022/09/14 05:25:44;;;;;;;25.80;11.87;;;;;;;12.89;98.78;94704.25;5152592;27;20194;-72
2022/09/14 05:28:12;;;;;;;21.87;11.13;;;;;;;12.99;97.98;94713.06;5151611;27;20202;-72
2022/09/14 05:30:40;;;;;;;13.30;10.10;;;;;;;12.97;98.59;94709.91;5152190;27;20199;-72
2022/09/14 05:33:07;;;;;;;17.40;10.63;;;;;;;13.00;98.42;94704.22;5152324;27;20210;-72
2022/09/14 05:35:33;;;;;;;19.03;10.83;;;;;;;13.09;98.19;94709.91;5155981;27;20210;-72
2022/09/14 05:38:02;;;;;;;16.23;11.17;;;;;;;13.19;97.46;94706.72;5154508;27;20236;-72
2022/09/14 05:40:28;;;;;;;18.00;11.07;;;;;;;13.23;97.76;94707.81;5152077;27;20201;-72
2022/09/14 05:42:55;;;;;;;19.37;10.97;;;;;;;13.25;97.36;94703.94;5156049;27;20198;-72
2022/09/14 05:45:22;;;;;;;20.77;11.20;;;;;;;13.21;97.00;94709.88;5155875;27;20206;-72
2022/09/14 05:47:49;;;;;;;20.53;10.93;;;;;;;13.17;97.59;94713.97;5155716;27;20198;-72
2022/09/14 05:50:16;;;;;;;16.90;10.90;;;;;;;13.25;97.54;94724.81;5155313;27;20198;-74
2022/09/14 05:52:42;;;;;;;14.07;11.27;;;;;;;13.32;97.18;94725.50;5074481;27;20633;-73
2022/09/14 05:55:11;;;;;;;17.47;11.67;;;;;;;13.36;97.39;94729.22;5100330;27;20199;-73
2022/09/14 05:57:38;;;;;;;18.40;10.50;;;;;;;13.37;97.78;94722.19;5130687;27;20295;-73
2022/09/14 06:00:08;;;;;;;23.17;11.27;;;;;;;13.40;97.85;94724.31;5131123;27;20211;-73
2022/09/14 06:02:35;;;;;;;16.43;11.07;;;;;;;13.47;96.66;94724.97;5132595;27;20283;-77
2022/09/14 06:05:02;;;;;;;16.73;11.43;;;;;;;13.52;96.20;94717.22;5134020;27;20880;-75
2022/09/14 06:07:29;;;;;;;18.63;11.77;;;;;;;13.56;96.36;94715.75;5130937;27;20192;-74
2022/09/14 06:09:55;;;;;;;15.37;10.87;;;;;;;13.64;96.39;94729.22;5137142;27;20576;-74
2022/09/14 06:12:25;;;;;;;16.57;11.27;;;;;;;13.72;95.91;94722.00;5154605;27;20199;-74
2022/09/14 06:14:52;;;;;;;19.07;10.70;;;;;;;13.82;94.05;94723.00;5154955;27;20629;-74
2022/09/14 06:17:19;;;;;;;16.03;10.73;;;;;;;13.79;93.66;94713.03;5150908;27;20247;-74
2022/09/14 06:19:46;;;;;;;21.43;11.17;;;;;;;13.76;93.39;94720.53;5153897;27;20205;-74
2022/09/14 06:22:13;;;;;;;15.57;11.13;;;;;;;13.75;94.01;94719.72;5147508;27;20198;-75
2022/09/14 06:24:40;;;;;;;13.70;11.30;;;;;;;13.76;93.88;94716.09;5154156;27;20956;-75
2022/09/14 06:27:07;;;;;;;17.57;11.03;;;;;;;13.84;93.86;94712.31;5153278;27;20199;-74
2022/09/14 06:29:38;;;;;;;17.97;11.07;;;;;;;13.89;93.48;94709.75;5149069;27;20198;-75
2022/09/14 06:32:05;;;;;;;17.87;10.80;;;;;;;13.95;92.76;94708.81;5154771;27;20714;-74
2022/09/14 06:34:32;;;;;;;16.77;10.90;;;;;;;14.01;93.32;94706.06;5154563;27;20198;-74
2022/09/14 06:36:59;;;;;;;13.67;10.37;;;;;;;14.12;92.75;94707.00;5154707;27;20198;-75
2022/09/14 06:39:26;;;;;;;26.70;10.23;;;;;;;14.17;92.39;94709.69;5153817;27;20711;-74
2022/09/14 06:41:53;;;;;;;14.20;10.47;;;;;;;14.26;92.03;94704.88;5153984;27;20688;-74
2022/09/14 06:44:19;;;;;;;19.87;10.97;;;;;;;14.34;91.25;94713.13;5154596;27;20198;-73
2022/09/14 06:46:48;;;;;;;16.77;10.70;;;;;;;14.45;90.69;94709.63;5153735;27;20199;-74
2022/09/14 06:49:19;;;;;;;13.57;9.60;;;;;;;14.56;90.44;94710.56;5148719;27;20205;-74
2022/09/14 06:51:46;;;;;;;17.33;10.53;;;;;;;14.61;89.71;94711.41;5154051;27;20242;-75
2022/09/14 06:54:15;;;;;;;15.33;9.87;;;;;;;14.70;89.02;94711.78;5152529;27;20649;-75
2022/09/14 06:56:43;;;;;;;17.10;10.50;;;;;;;14.65;89.35;94715.16;5154869;27;20233;-77
2022/09/14 06:59:13;;;;;;;14.10;10.13;;;;;;;14.71;88.68;94718.63;5154272;27;20317;-75
2022/09/14 07:01:41;;;;;;;12.93;9.63;;;;;;;14.76;88.71;94726.53;5153623;27;20197;-76
2022/09/14 07:04:09;;;;;;;12.30;9.50;;;;;;;14.84;87.73;94720.06;5148048;27;20202;-77
2022/09/14 07:06:40;;;;;;;15.50;9.83;;;;;;;14.94;87.64;94721.03;5154108;27;20202;-75
2022/09/14 07:09:07;;;;;;;16.60;9.50;;;;;;;15.03;86.54;94726.63;5146924;27;20210;-75
2022/09/14 07:11:34;;;;;;;13.77;10.27;;;;;;;15.10;86.50;94717.53;5154114;27;20601;-76
2022/09/14 07:14:01;;;;;;;16.80;10.47;;;;;;;15.17;85.60;94704.28;5154058;27;20221;-74
2022/09/14 07:16:30;;;;;;;20.80;9.63;;;;;;;15.29;85.21;94710.94;5153994;27;20226;-76
2022/09/14 07:19:00;;;;;;;14.93;10.20;;;;;;;15.34;84.12;94712.84;5150247;27;20322;-76
2022/09/14 07:21:30;;;;;;;16.73;10.40;;;;;;;15.32;84.22;94709.69;5148870;27;20191;-74
2022/09/14 07:23:57;;;;;;;14.33;9.87;;;;;;;15.41;84.22;94705.56;5153046;27;20289;-72
2022/09/14 07:26:25;;;;;;;14.23;9.93;;;;;;;15.34;83.69;94710.22;5153640;27;20209;-73
2022/09/14 07:28:56;;;;;;;15.13;10.37;;;;;;;15.40;83.78;94701.38;5153461;27;20202;-73
2022/09/14 07:31:25;;;;;;;19.07;9.77;;;;;;;15.58;84.19;94706.31;5147734;27;20199;-74
2022/09/14 07:33:53;;;;;;;21.83;9.70;;;;;;;15.74;85.89;94700.19;5148994;27;20202;-73
2022/09/14 07:36:21;;;;;;;16.70;9.20;;;;;;;15.82;84.67;94691.84;5144074;27;20290;-77
2022/09/14 07:38:49;;;;;;;17.57;10.67;;;;;;;15.88;82.72;94701.34;5147159;27;20240;-73
2022/09/14 07:41:16;;;;;;;14.80;9.90;;;;;;;15.95;82.20;94701.16;5148793;27;20207;-73
2022/09/14 07:43:43;;;;;;;17.17;10.00;;;;;;;16.01;82.44;94694.91;5143437;27;20194;-74
2022/09/14 07:46:10;;;;;;;16.77;9.97;;;;;;;16.18;81.50;94698.19;5149173;27;20627;-74
2022/09/14 07:48:37;;;;;;;13.13;9.67;;;;;;;16.32;80.37;94696.72;5142510;27;20195;-73
2022/09/14 07:51:06;;;;;;;14.83;10.23;;;;;;;16.38;80.10;94694.91;5152296;27;20234;-72
2022/09/14 07:53:35;;;;;;;11.60;9.33;;;;;;;16.43;80.69;94692.31;5144043;27;20255;-74
2022/09/14 07:56:05;;;;;;;16.83;9.33;;;;;;;16.53;80.28;94702.91;5152499;27;20749;-76
2022/09/14 07:58:32;;;;;;;17.63;9.40;;;;;;;16.63;80.07;94700.34;5151819;27;20223;-74
2022/09/14 08:00:59;;;;;;;14.70;9.00;;;;;;;16.71;79.94;94697.22;5151938;27;20201;-75
2022/09/14 08:03:27;;;;;;;22.87;9.57;;;;;;;16.85;81.19;94703.59;5151705;27;20960;-76
2022/09/14 08:06:00;;;;;;;14.93;8.97;;;;;;;16.90;79.82;94703.66;5148271;27;20203;-71
2022/09/14 08:08:29;;;;;;;14.77;9.23;;;;;;;17.04;81.32;94706.59;5149027;27;20205;-74
2022/09/14 08:10:56;;;;;;;12.87;8.83;;;;;;;17.28;81.56;94713.00;5152001;27;20201;-79
2022/09/14 08:13:24;;;;;;;13.23;9.50;;;;;;;17.47;77.18;94705.44;5151707;27;20207;-75
2022/09/14 08:15:51;;;;;;;17.43;9.93;;;;;;;17.51;76.38;94696.78;5144835;27;20202;-75
2022/09/14 08:18:18;;;;;;;18.00;8.90;;;;;;;17.54;75.63;94701.56;5149297;27;20218;-73
2022/09/14 08:20:45;;;;;;;12.60;8.47;;;;;;;17.56;75.63;94688.94;5149032;27;20217;-76
2022/09/14 08:23:12;;;;;;;16.00;9.07;;;;;;;17.65;74.81;94698.94;5151004;27;20294;-78
2022/09/14 08:25:39;;;;;;;17.43;9.70;;;;;;;17.76;75.50;94700.53;5151925;27;20199;-74
2022/09/14 08:28:06;;;;;;;18.20;9.77;;;;;;;17.87;75.79;94699.47;5144890;27;20207;-74
2022/09/14 08:30:34;;;;;;;16.43;10.27;;;;;;;17.92;74.83;94699.50;5151271;27;20293;-74
2022/09/14 08:33:01;;;;;;;17.40;9.73;;;;;;;17.99;74.15;94698.19;5151664;27;20665;-75
2022/09/14 08:35:28;;;;;;;15.77;9.80;;;;;;;18.13;73.80;94696.59;5151978;27;20202;-75
2022/09/14 08:37:55;;;;;;;18.40;9.13;;;;;;;18.21;73.87;94694.50;5150672;27;20199;-74
2022/09/14 08:40:21;;;;;;;16.30;9.40;;;;;;;18.36;73.05;94692.63;5132306;27;20924;-73
2022/09/14 08:42:49;;;;;;;13.57;8.90;;;;;;;18.52;72.47;94696.88;5143246;27;20213;-75
2022/09/14 08:45:17;;;;;;;20.95;9.68;;;;;;;18.57;71.96;94685.53;5149896;27;20203;-74
2022/09/14 08:47:45;;;;;;;16.58;8.82;;;;;;;18.71;71.20;94683.94;5143316;27;20297;-79
2022/09/14 08:50:16;;;;;;;15.23;8.38;;;;;;;18.88;70.54;94691.50;5144315;27;20856;-73
2022/09/14 08:52:45;;;;;;;17.30;9.15;;;;;;;18.96;70.54;94683.06;5138297;27;20322;-75
2022/09/14 08:55:25;;;;;;;16.80;9.38;;;;;;;19.11;70.34;94693.53;5144361;27;20206;-74
2022/09/14 08:58:00;;;;;;;17.95;9.80;;;;;;;19.27;69.61;94687.97;5150512;27;20202;-73
2022/09/14 09:00:36;;;;;;;15.07;9.60;;;;;;;19.49;68.13;94686.81;5151084;27;20419;-73
2022/09/14 09:03:38;;;;;;;17.23;8.88;;;;;;;19.68;67.67;94671.94;5150730;27;20808;-76
2022/09/14 09:06:13;;;;;;;12.40;8.50;;;;;;;19.83;67.65;94674.47;5103145;27;20209;-74
2022/09/14 09:08:49;;;;;;;15.90;8.85;;;;;;;20.07;66.55;94683.25;5127645;27;20209;-74
2022/09/14 09:11:20;;;;;;;14.05;8.52;;;;;;;20.27;65.95;94677.06;5150589;27;20197;-74
2022/09/14 09:13:50;;;;;;;11.68;8.30;;;;;;;20.49;65.60;94673.97;5150058;27;20199;-74
2022/09/14 09:16:21;;;;;;;14.60;8.38;;;;;;;20.70;65.15;94672.69;5150578;27;20191;-74
2022/09/14 09:18:52;;;;;;;18.60;8.38;;;;;;;21.01;65.09;94668.63;5147650;27;20724;-73
2022/09/14 09:21:25;;;;;;;15.85;8.25;;;;;;;21.34;64.13;94672.22;5149533;27;20692;-72
2022/09/14 09:23:55;;;;;;;20.20;7.97;;;;;;;21.57;63.86;94668.75;5150851;27;20198;-73
2022/09/14 09:26:27;;;;;;;10.52;7.47;;;;;;;21.84;60.72;94662.81;5150946;27;20589;-73
2022/09/14 09:28:56;;;;;;;15.43;7.45;;;;;;;22.13;60.39;94662.66;5146574;27;20218;-74
2022/09/14 09:31:34;;;;;;;9.55;7.05;;;;;;;22.42;59.47;94666.66;5144052;27;20218;-72
2022/09/14 09:34:02;;;;;;;12.95;7.30;;;;;;;22.70;57.88;94669.38;5150264;27;20202;-72
2022/09/14 09:36:35;;;;;;;13.95;6.90;;;;;;;23.00;57.87;94666.19;5145602;27;20199;-73
2022/09/14 09:39:02;;;;;;;10.18;6.85;;;;;;;23.30;57.28;94672.72;5135433;27;20219;-72
2022/09/14 09:41:31;;;;;;;13.65;6.07;;;;;;;23.49;55.78;94668.88;5150337;27;20205;-72
2022/09/14 09:44:01;;;;;;;12.85;5.72;;;;;;;23.78;54.84;94657.13;5143696;27;20609;-73
2022/09/14 09:46:29;;;;;;;8.80;5.45;;;;;;;24.09;54.08;94666.75;5150479;27;20286;-73
2022/09/14 09:49:00;;;;;;;12.60;5.97;;;;;;;24.34;52.87;94665.38;5142266;27;20199;-71
2022/09/14 09:51:29;;;;;;;13.15;5.93;;;;;;;24.47;53.18;94669.06;5149407;27;20318;-79
2022/09/14 09:54:05;;;;;;;13.00;5.47;;;;;;;24.72;51.78;94657.78;5143739;27;20225;-73
2022/09/14 09:56:36;;;;;;;10.15;5.10;;;;;;;25.09;51.36;94656.53;5150570;27;20194;-75
2022/09/14 09:59:03;;;;;;;15.02;6.10;;;;;;;25.19;50.84;94650.94;5149802;27;20214;-73
2022/09/14 10:01:32;;;;;;;12.10;4.82;;;;;;;25.47;51.08;94646.13;5150263;27;20209;-72
2022/09/14 10:04:15;;;;;;;10.93;4.55;;;;;;;25.64;49.04;94659.50;5136507;27;20235;-72
2022/09/14 10:06:45;;;;;;;10.98;4.60;;;;;;;25.99;48.37;94644.31;5149597;27;20213;-71
2022/09/14 10:09:18;;;;;;;12.73;4.50;;;;;;;26.35;47.58;94645.53;5150111;27;20309;-73
2022/09/14 10:11:47;;;;;;;9.00;4.15;;;;;;;26.74;47.55;94635.72;5150063;27;20205;-73
2022/09/14 10:14:23;;;;;;;7.05;4.10;;;;;;;27.01;46.67;94630.00;5149891;27;20199;-74
2022/09/14 10:16:51;;;;;;;12.38;4.03;;;;;;;27.43;45.21;94638.88;5137458;27;20206;-74
2022/09/14 10:19:23;;;;;;;10.40;3.90;;;;;;;27.40;43.59;94628.81;5144101;27;20242;-75
2022/09/14 10:22:15;;;;;;;6.78;3.90;;;;;;;27.55;44.10;94638.97;5152190;27;20198;-73
2022/09/14 10:24:54;;;;;;;6.78;3.50;;;;;;;27.51;42.78;94633.47;5150184;27;20210;-71
2022/09/14 10:27:40;;;;;;;9.60;4.45;;;;;;;27.60;44.43;94641.44;5135966;27;20256;-75
2022/09/14 10:30:14;;;;;;;9.60;4.53;;;;;;;27.93;42.59;94630.81;5140470;27;20234;-74
2022/09/14 10:32:43;;;;;;;6.40;4.07;;;;;;;28.19;42.08;94630.63;5153621;27;20195;-76
2022/09/14 10:35:16;;;;;;;7.53;4.03;;;;;;;28.27;40.46;94633.22;5153071;27;20207;-75
2022/09/14 10:37:55;;;;;;;9.88;4.30;;;;;;;28.52;41.22;94623.34;5152752;27;20206;-75
2022/09/14 10:40:31;;;;;;;17.13;4.32;;;;;;;28.89;40.87;94624.25;5153508;27;20217;-75
2022/09/14 10:43:09;;;;;;;4.20;3.35;;;;;;;29.14;36.55;94634.63;5153339;27;20941;-76
2022/09/14 10:45:41;;;;;;;3.80;2.42;;;;;;;29.32;31.61;94637.09;5146405;27;20220;-74
2022/09/14 10:48:35;;;;;;;2.22;2.00;;;;;;;29.29;30.40;94630.50;5135447;27;20226;-75
2022/09/14 10:51:23;;;;;;;7.32;2.00;;;;;;;29.32;29.60;94637.88;5135832;27;20229;-76
2022/09/14 10:53:58;;;;;;;5.38;2.05;;;;;;;29.36;29.00;94625.34;5146803;27;20312;-74
2022/09/14 10:56:34;;;;;;;4.07;1.67;;;;;;;29.25;29.19;94633.06;5146238;27;20199;-74
2022/09/14 10:59:25;;;;;;;4.15;1.80;;;;;;;29.14;28.99;94625.78;5151521;27;20222;-75
2022/09/14 11:02:28;;;;;;;2.55;1.95;;;;;;;29.32;29.33;94618.34;5152387;27;20194;-76
2022/09/14 11:05:07;;;;;;;7.10;1.90;;;;;;;29.64;30.50;94628.13;5153152;27;20209;-76
2022/09/14 11:07:40;;;;;;;2.85;1.95;;;;;;;29.68;29.52;94620.94;5152049;27;20230;-75
2022/09/14 11:10:19;;;;;;;3.47;2.05;;;;;;;29.99;30.67;94623.00;5153213;27;20202;-75
2022/09/14 11:13:10;;;;;;;3.78;2.03;;;;;;;30.29;30.69;94634.94;5153345;27;20202;-75
2022/09/14 11:15:44;;;;;;;2.58;1.88;;;;;;;29.97;28.54;94628.72;5149353;27;20289;-75
2022/09/14 11:18:21;;;;;;;3.78;1.70;;;;;;;29.73;28.55;94634.09;5150475;27;20209;-75
2022/09/14 11:21:00;;;;;;;2.70;1.98;;;;;;;29.91;28.97;94622.03;5145424;27;20222;-74
2022/09/14 11:23:38;;;;;;;4.43;1.90;;;;;;;29.96;28.21;94624.47;5151779;27;20198;-74
2022/09/14 11:26:12;;;;;;;4.38;2.35;;;;;;;30.02;28.57;94623.09;5152415;27;20214;-74
2022/09/14 11:28:45;;;;;;;4.53;1.83;;;;;;;30.08;29.00;94616.38;5148168;27;20202;-75
2022/09/14 11:31:20;;;;;;;2.42;1.80;;;;;;;30.42;29.17;94611.56;5150882;27;20191;-76
2022/09/14 11:33:54;;;;;;;5.95;1.85;;;;;;;30.55;28.43;94605.78;5145532;27;20238;-78
2022/09/14 11:36:25;;;;;;;4.32;1.70;;;;;;;30.74;27.85;94599.72;5152751;27;20206;-75
2022/09/14 11:38:56;;;;;;;6.38;2.00;;;;;;;30.83;28.09;94600.31;5145417;27;20200;-76